createdAt,value
2023-04-19T00:05:02.430Z,9.18
2023-04-19T00:08:06.118Z,9.20
2023-04-19T00:11:09.124Z,9.21
2023-04-19T00:14:11.476Z,9.20
2023-04-19T00:17:13.438Z,9.19
2023-04-19T00:20:15.409Z,9.18
2023-04-19T00:23:17.823Z,9.17
2023-04-19T00:26:20.062Z,9.18
2023-04-19T00:29:22.762Z,9.18
2023-04-19T00:32:24.888Z,9.19
2023-04-19T00:35:27.012Z,9.19
2023-04-19T00:38:28.947Z,9.19
2023-04-19T00:41:30.822Z,9.19
2023-04-19T00:44:32.895Z,9.19
2023-04-19T00:47:35.586Z,9.19
2023-04-19T00:50:37.726Z,9.19
2023-04-19T00:53:40.449Z,9.20
2023-04-19T00:56:44.361Z,9.19
2023-04-19T00:59:47.015Z,9.18
2023-04-19T01:02:49.218Z,9.17
2023-04-19T01:05:53.830Z,9.15
2023-04-19T01:08:56.494Z,9.14
2023-04-19T01:12:01.456Z,9.12
2023-04-19T01:15:04.306Z,9.10
2023-04-19T01:18:06.550Z,9.07
2023-04-19T01:21:09.983Z,9.02
2023-04-19T01:24:12.167Z,8.98
2023-04-19T01:27:16.265Z,8.92
2023-04-19T01:30:18.331Z,8.85
2023-04-19T01:33:21.336Z,8.76
2023-04-19T01:36:23.288Z,8.69
2023-04-19T01:39:26.893Z,8.58
2023-04-19T01:42:28.870Z,8.49
2023-04-19T01:45:32.779Z,8.39
2023-04-19T01:48:35.360Z,8.30
2023-04-19T01:51:38.707Z,8.20
2023-04-19T01:54:40.620Z,8.12
2023-04-19T01:57:42.606Z,8.03
2023-04-19T02:04:44.265Z,7.85
2023-04-19T02:07:47.563Z,7.80
2023-04-19T02:10:50.979Z,7.75
2023-04-19T02:13:54.604Z,7.70
2023-04-19T02:16:58.766Z,7.66
2023-04-19T02:20:01.981Z,7.63
2023-04-19T02:23:05.677Z,7.60
2023-04-19T02:26:13.164Z,7.59
2023-04-19T02:31:52.665Z,7.62
2023-04-19T02:34:56.188Z,7.60
2023-04-19T02:38:04.149Z,7.60
2023-04-19T02:41:08.570Z,7.60
2023-04-19T02:44:16.455Z,7.61
2023-04-19T02:47:21.309Z,7.64
2023-04-19T02:50:24.513Z,7.67
2023-04-19T02:53:28.765Z,7.70
2023-04-19T02:56:32.283Z,7.74
2023-04-19T02:59:35.725Z,7.77
2023-04-19T03:02:40.058Z,7.79
2023-04-19T03:05:44.102Z,7.80
2023-04-19T03:08:47.558Z,7.79
2023-04-19T03:11:52.855Z,7.78
2023-04-19T03:14:56.309Z,7.79
2023-04-19T03:18:01.708Z,7.78
2023-04-19T03:21:09.083Z,7.77
2023-04-19T03:24:30.367Z,7.77
2023-04-19T03:27:37.014Z,7.77
2023-04-19T03:30:43.313Z,7.78
2023-04-19T03:33:46.733Z,7.80
2023-04-19T03:36:50.193Z,7.80
2023-04-19T03:39:53.502Z,7.84
2023-04-19T03:43:02.223Z,7.88
2023-04-19T03:46:08.271Z,7.92
2023-04-19T03:49:12.235Z,7.95
2023-04-19T03:52:16.524Z,7.99
2023-04-19T03:55:21.111Z,8.02
2023-04-19T03:58:24.457Z,8.04
2023-04-19T04:04:45.612Z,8.11
2023-04-19T04:07:50.008Z,8.18
2023-04-19T04:10:54.977Z,8.25
2023-04-19T04:13:58.941Z,8.33
2023-04-19T04:17:04.841Z,8.42
2023-04-19T04:20:12.059Z,8.52
2023-04-19T04:23:15.647Z,8.65
2023-04-19T04:26:25.429Z,8.79
2023-04-19T04:29:39.699Z,8.92
2023-04-19T04:32:43.540Z,9.04
2023-04-19T04:35:47.533Z,9.16
2023-04-19T04:38:54.507Z,9.29
2023-04-19T04:41:58.424Z,9.41
2023-04-19T04:45:01.839Z,9.55
2023-04-19T04:48:06.914Z,9.68
2023-04-19T04:51:10.273Z,9.82
2023-04-19T04:54:15.425Z,9.90
2023-04-19T04:57:20.238Z,9.95
2023-04-19T05:00:24.491Z,9.99
2023-04-19T05:03:35.277Z,10.00
2023-04-19T05:06:41.497Z,9.99
2023-04-19T05:09:45.573Z,9.94
2023-04-19T05:12:52.807Z,9.89
2023-04-19T05:15:56.793Z,9.84
2023-04-19T05:19:00.617Z,9.80
2023-04-19T05:22:04.839Z,9.77
2023-04-19T05:25:10.816Z,9.79
2023-04-19T05:28:14.510Z,9.81
2023-04-19T05:31:24.288Z,9.86
2023-04-19T05:34:57.178Z,9.90
2023-04-19T05:38:00.797Z,9.94
2023-04-19T05:41:06.193Z,10.03
2023-04-19T05:44:09.802Z,10.09
2023-04-19T05:47:14.673Z,10.12
2023-04-19T05:50:36.971Z,10.15
2023-04-19T05:54:01.002Z,10.18
2023-04-19T05:57:05.081Z,10.24
2023-04-19T06:00:32.945Z,10.29
2023-04-19T06:05:09.507Z,10.36
2023-04-19T06:08:14.981Z,10.45
2023-04-19T06:11:26.451Z,10.48
2023-04-19T06:14:34.269Z,10.54
2023-04-19T06:17:36.627Z,10.60
2023-04-19T06:28:05.970Z,10.87
2023-04-19T06:34:55.206Z,11.08
2023-04-19T06:37:59.708Z,11.14
2023-04-19T06:41:01.805Z,11.24
2023-04-19T06:44:05.617Z,11.32
2023-04-19T06:47:07.964Z,11.41
2023-04-19T06:50:10.841Z,11.50
2023-04-19T06:53:13.518Z,11.58
2023-04-19T06:56:15.406Z,11.62
2023-04-19T06:59:20.770Z,11.66
2023-04-19T07:02:24.548Z,11.69
2023-04-19T07:05:27.121Z,11.76
2023-04-19T07:08:42.427Z,11.83
2023-04-19T07:11:52.544Z,11.92
2023-04-19T07:14:56.720Z,11.97
2023-04-19T07:17:58.739Z,11.99
2023-04-19T07:21:01.063Z,12.04
2023-04-19T07:24:08.038Z,12.12
2023-04-19T07:27:10.568Z,12.19
2023-04-19T07:30:12.490Z,12.28
2023-04-19T07:33:15.885Z,12.35
2023-04-19T07:36:18.279Z,12.44
2023-04-19T07:39:20.261Z,12.55
2023-04-19T07:42:22.116Z,12.64
2023-04-19T07:45:24.411Z,12.71
2023-04-19T07:48:26.433Z,12.81
2023-04-19T07:51:28.344Z,12.94
2023-04-19T07:54:30.927Z,13.07
2023-04-19T07:57:35.512Z,13.24
2023-04-19T08:00:37.520Z,13.38
2023-04-19T08:03:41.763Z,13.48
2023-04-19T08:06:43.908Z,13.58
2023-04-19T08:09:46.125Z,13.65
2023-04-19T08:13:03.578Z,13.71
2023-04-19T08:19:14.126Z,13.94
2023-04-19T08:22:17.534Z,14.09
2023-04-19T08:25:20.774Z,14.25
2023-04-19T08:28:24.018Z,14.35
2023-04-19T08:31:25.927Z,14.46
2023-04-19T08:34:28.214Z,14.52
2023-04-19T08:37:30.137Z,14.53
2023-04-19T08:40:32.596Z,14.51
2023-04-19T08:43:37.449Z,14.54
2023-04-19T08:46:42.017Z,14.57
2023-04-19T08:49:49.209Z,14.62
2023-04-19T08:53:12.135Z,14.74
2023-04-19T08:56:32.311Z,14.88
2023-04-19T08:59:38.912Z,14.99
2023-04-19T09:02:54.074Z,15.05
2023-04-19T09:05:56.583Z,15.13
2023-04-19T09:12:27.792Z,15.34
2023-04-19T09:15:41.391Z,15.44
2023-04-19T09:19:02.394Z,15.60
2023-04-19T09:22:15.997Z,15.79
2023-04-19T09:25:41.893Z,15.92
2023-04-19T09:28:56.813Z,16.01
2023-04-19T09:31:59.994Z,16.07
2023-04-19T09:35:02.168Z,16.08
2023-04-19T09:38:07.201Z,16.07
2023-04-19T09:41:10.162Z,16.19
2023-04-19T09:47:29.634Z,16.43
2023-04-19T09:50:34.048Z,16.52
2023-04-19T09:53:42.573Z,16.71
2023-04-19T09:56:48.260Z,16.93
2023-04-19T09:59:50.839Z,17.03
2023-04-19T10:07:59.895Z,17.22
2023-04-19T10:11:05.885Z,17.38
2023-04-19T10:14:13.963Z,17.52
2023-04-19T10:17:17.554Z,17.60
2023-04-19T10:20:30.923Z,17.62
2023-04-19T10:23:37.496Z,17.59
2023-04-19T10:27:24.548Z,17.57
2023-04-19T10:30:27.810Z,17.63
2023-04-19T10:33:37.912Z,17.60
2023-04-19T10:36:41.582Z,17.64
2023-04-19T10:39:45.626Z,17.77
2023-04-19T10:43:11.621Z,17.88
2023-04-19T10:46:22.557Z,17.97
2023-04-19T10:49:30.330Z,18.16
2023-04-19T10:52:38.119Z,18.38
2023-04-19T10:55:53.499Z,18.59
2023-04-19T10:59:03.288Z,19.14
2023-04-19T11:02:42.609Z,19.85
2023-04-19T11:06:20.211Z,20.54
2023-04-19T11:09:42.471Z,20.89
2023-04-19T11:12:46.266Z,20.69
2023-04-19T11:15:52.254Z,20.24
2023-04-19T11:18:56.453Z,19.73
2023-04-19T11:22:00.336Z,19.40
2023-04-19T11:25:17.464Z,19.16
2023-04-19T11:28:21.904Z,19.07
2023-04-19T11:31:27.732Z,18.96
2023-04-19T11:34:41.709Z,18.90
2023-04-19T11:37:47.536Z,18.81
2023-04-19T11:41:03.920Z,18.82
2023-04-19T11:44:20.306Z,18.85
2023-04-19T11:47:24.566Z,18.73
2023-04-19T11:50:41.803Z,18.44
2023-04-19T11:53:45.768Z,18.26
2023-04-19T11:57:08.423Z,18.34
2023-04-19T12:00:12.658Z,18.58
2023-04-19T12:03:17.534Z,19.13
2023-04-19T12:06:27.117Z,19.48
2023-04-19T12:09:37.110Z,19.37
2023-04-19T12:12:41.822Z,19.25
2023-04-19T12:15:47.093Z,18.94
2023-04-19T12:18:51.788Z,18.64
2023-04-19T12:22:09.042Z,18.46
2023-04-19T12:25:12.857Z,18.31
2023-04-19T12:28:17.939Z,18.13
2023-04-19T12:31:22.055Z,17.93
2023-04-19T12:34:26.581Z,17.81
2023-04-19T12:37:29.878Z,17.67
2023-04-19T12:40:33.864Z,17.51
2023-04-19T12:43:38.481Z,17.37
2023-04-19T12:46:42.769Z,17.33
2023-04-19T12:49:46.186Z,17.23
2023-04-19T12:52:51.440Z,17.13
2023-04-19T12:55:56.140Z,16.99
2023-04-19T12:59:00.840Z,16.81
2023-04-19T13:02:06.221Z,16.65
2023-04-19T13:05:13.932Z,16.48
2023-04-19T13:08:28.314Z,16.32
2023-04-19T13:11:41.193Z,16.16
2023-04-19T13:14:46.431Z,16.06
2023-04-19T13:17:51.164Z,15.97
2023-04-19T13:20:55.125Z,15.91
2023-04-19T13:23:59.344Z,15.82
2023-04-19T13:27:02.989Z,15.76
2023-04-19T13:30:07.623Z,15.69
2023-04-19T13:33:16.952Z,15.64
2023-04-19T13:36:23.260Z,15.61
2023-04-19T13:39:27.719Z,15.57
2023-04-19T13:42:31.181Z,15.48
2023-04-19T13:45:36.085Z,15.35
2023-04-19T13:48:41.634Z,15.25
2023-04-19T13:51:50.143Z,15.16
2023-04-19T13:54:54.250Z,15.05
2023-04-19T13:57:58.569Z,14.92
2023-04-19T14:04:47.030Z,14.70
2023-04-19T14:07:52.697Z,14.59
2023-04-19T14:10:58.500Z,14.51
2023-04-19T14:14:02.909Z,14.47
2023-04-19T14:17:06.174Z,14.44
2023-04-19T14:20:14.173Z,14.40
2023-04-19T14:23:18.199Z,14.38
2023-04-19T14:26:22.099Z,14.37
2023-04-19T14:29:25.593Z,14.39
2023-04-19T14:32:31.677Z,14.38
2023-04-19T14:35:35.753Z,14.35
2023-04-19T14:38:39.382Z,14.29
2023-04-19T14:41:42.784Z,14.17
2023-04-19T14:44:46.737Z,14.05
2023-04-19T14:47:50.056Z,13.94
2023-04-19T14:50:56.457Z,13.88
2023-04-19T14:54:00.945Z,13.80
2023-04-19T14:57:04.474Z,13.75
2023-04-19T15:00:11.275Z,13.71
2023-04-19T15:03:16.264Z,13.67
2023-04-19T15:06:21.881Z,13.65
2023-04-19T15:09:26.726Z,13.65
2023-04-19T15:12:31.196Z,13.64
2023-04-19T15:15:37.974Z,13.60
2023-04-19T15:18:41.181Z,13.58
2023-04-19T15:21:45.816Z,13.54
2023-04-19T15:24:49.726Z,13.48
2023-04-19T15:27:53.284Z,13.46
2023-04-19T15:31:04.383Z,13.44
2023-04-19T15:34:09.284Z,13.42
2023-04-19T15:37:12.528Z,13.41
2023-04-19T15:40:17.290Z,13.39
2023-04-19T15:43:21.104Z,13.38
2023-04-19T15:46:26.150Z,13.35
2023-04-19T15:49:30.423Z,13.32
2023-04-19T15:52:35.493Z,13.31
2023-04-19T15:55:40.195Z,13.31
2023-04-19T15:58:43.700Z,13.29
2023-04-19T16:01:49.717Z,13.27
2023-04-19T16:04:53.547Z,13.26
2023-04-19T16:08:05.816Z,13.24
2023-04-19T16:11:11.050Z,13.17
2023-04-19T16:14:17.434Z,13.14
2023-04-19T16:17:22.159Z,13.12
2023-04-19T16:20:27.172Z,13.09
2023-04-19T16:23:31.875Z,13.07
2023-04-19T16:26:35.137Z,13.03
2023-04-19T16:29:40.018Z,12.99
2023-04-19T16:32:44.739Z,12.97
2023-04-19T16:35:48.339Z,12.95
2023-04-19T16:38:52.572Z,12.93
2023-04-19T16:41:57.825Z,12.91
2023-04-19T16:45:01.107Z,12.91
2023-04-19T16:48:04.969Z,12.91
2023-04-19T16:51:09.628Z,12.90
2023-04-19T16:54:12.935Z,12.88
2023-04-19T16:57:19.449Z,12.86
2023-04-19T17:00:25.415Z,12.82
2023-04-19T17:03:30.756Z,12.80
2023-04-19T17:06:35.486Z,12.78
2023-04-19T17:09:40.228Z,12.76
2023-04-19T17:12:44.188Z,12.73
2023-04-19T17:15:50.413Z,12.69
2023-04-19T17:18:57.736Z,12.66
2023-04-19T17:22:08.303Z,12.63
2023-04-19T17:25:14.200Z,12.61
2023-04-19T17:28:18.169Z,12.60
2023-04-19T17:31:30.848Z,12.59
2023-04-19T17:34:37.039Z,12.58
2023-04-19T17:37:42.090Z,12.57
2023-04-19T17:40:45.827Z,12.57
2023-04-19T17:43:49.315Z,12.57
2023-04-19T17:46:53.109Z,12.56
2023-04-19T17:50:08.746Z,12.55
2023-04-19T17:53:16.348Z,12.55
2023-04-19T17:56:20.165Z,12.56
2023-04-19T17:59:25.441Z,12.56
2023-04-19T18:05:07.859Z,12.53
2023-04-19T18:08:13.405Z,12.53
2023-04-19T18:11:18.362Z,12.52
2023-04-19T18:14:20.256Z,12.50
2023-04-19T18:17:23.387Z,12.47
2023-04-19T18:20:26.664Z,12.45
2023-04-19T18:23:28.751Z,12.42
2023-04-19T18:26:59.250Z,12.37
2023-04-19T18:30:04.437Z,12.31
2023-04-19T18:33:07.879Z,12.24
2023-04-19T18:36:11.130Z,12.15
2023-04-19T18:39:13.495Z,12.05
2023-04-19T18:42:17.334Z,11.96
2023-04-19T18:45:19.321Z,11.88
2023-04-19T18:48:28.628Z,11.79
2023-04-19T18:51:31.470Z,11.72
2023-04-19T18:54:34.727Z,11.65
2023-04-19T18:57:38.271Z,11.56
2023-04-19T19:00:42.373Z,11.47
2023-04-19T19:04:12.647Z,11.37
2023-04-19T19:07:33.283Z,11.27
2023-04-19T19:11:06.573Z,11.14
2023-04-19T19:13:57.684Z,11.03
2023-04-19T19:17:05.935Z,10.91
2023-04-19T19:20:11.691Z,10.80
2023-04-19T19:23:15.670Z,10.70
2023-04-19T19:26:17.680Z,10.59
2023-04-19T19:29:22.545Z,10.50
2023-04-19T19:32:28.708Z,10.41
2023-04-19T19:35:36.950Z,10.32
2023-04-19T19:38:40.342Z,10.26
2023-04-19T19:44:54.472Z,10.20
2023-04-19T19:48:00.126Z,10.19
2023-04-19T19:51:20.832Z,10.18
2023-04-19T19:54:27.945Z,10.18
2023-04-19T19:58:18.527Z,10.18
2023-04-19T20:00:55.565Z,10.17
2023-04-19T20:03:59.116Z,10.18
2023-04-19T20:10:10.268Z,10.17
2023-04-19T20:13:13.409Z,10.13
2023-04-19T20:16:20.545Z,10.09
2023-04-19T20:19:24.556Z,10.04
2023-04-19T20:22:27.922Z,10.00
2023-04-19T20:25:35.615Z,9.97
2023-04-19T20:28:38.658Z,9.94
2023-04-19T20:31:42.790Z,9.93
2023-04-19T20:34:45.429Z,9.94
2023-04-19T20:37:50.467Z,9.95
2023-04-19T20:40:53.452Z,9.95
2023-04-19T20:43:56.632Z,9.95
2023-04-19T20:46:58.502Z,9.94
2023-04-19T20:50:01.980Z,9.96
2023-04-19T20:53:05.731Z,9.94
2023-04-19T20:56:07.727Z,9.93
2023-04-19T20:59:10.304Z,9.90
2023-04-19T21:02:14.113Z,9.86
2023-04-19T21:05:16.235Z,9.82
2023-04-19T21:08:38.961Z,9.80
2023-04-19T21:11:42.234Z,9.75
2023-04-19T21:14:49.312Z,9.72
2023-04-19T21:17:55.205Z,9.68
2023-04-19T21:20:58.808Z,9.65
2023-04-19T21:24:02.254Z,9.63
2023-04-19T21:27:09.396Z,9.61
2023-04-19T21:30:15.588Z,9.59
2023-04-19T21:33:19.355Z,9.56
2023-04-19T21:36:26.785Z,9.55
2023-04-19T21:39:31.518Z,9.55
2023-04-19T21:42:36.368Z,9.55
2023-04-19T21:45:40.919Z,9.54
2023-04-19T21:48:45.779Z,9.54
2023-04-19T21:51:51.320Z,9.54
2023-04-19T21:54:56.400Z,9.56
2023-04-19T21:58:01.491Z,9.58
2023-04-19T22:04:46.869Z,9.58
2023-04-19T22:07:51.491Z,9.60
2023-04-19T22:11:00.208Z,9.61
2023-04-19T22:14:05.904Z,9.62
2023-04-19T22:17:10.256Z,9.64
2023-04-19T22:20:15.971Z,9.64
2023-04-19T22:23:19.737Z,9.65
2023-04-19T22:26:23.254Z,9.65
2023-04-19T22:29:26.788Z,9.65
2023-04-19T22:32:30.419Z,9.63
2023-04-19T22:35:36.473Z,9.61
2023-04-19T22:38:39.886Z,9.59
2023-04-19T22:41:43.917Z,9.56
2023-04-19T22:44:49.290Z,9.53
2023-04-19T22:47:56.041Z,9.50
2023-04-19T22:51:00.842Z,9.47
2023-04-19T22:54:10.710Z,9.46
2023-04-19T22:57:15.855Z,9.45
2023-04-19T23:00:20.050Z,9.45
2023-04-19T23:03:24.749Z,9.45
2023-04-19T23:06:29.236Z,9.45
2023-04-19T23:09:32.686Z,9.47
2023-04-19T23:12:37.344Z,9.48
2023-04-19T23:15:43.259Z,9.49
2023-04-19T23:18:47.056Z,9.49
2023-04-19T23:21:50.911Z,9.48
2023-04-19T23:24:55.694Z,9.48
2023-04-19T23:28:00.583Z,9.49
2023-04-19T23:31:03.910Z,9.49
2023-04-19T23:34:10.076Z,9.48
2023-04-19T23:37:15.431Z,9.49
2023-04-19T23:40:21.392Z,9.48
2023-04-19T23:43:26.029Z,9.47
2023-04-19T23:46:29.945Z,9.47
2023-04-19T23:49:35.605Z,9.48
2023-04-19T23:52:38.957Z,9.47
2023-04-19T23:55:43.000Z,9.46
2023-04-19T23:58:46.621Z,9.46
